DAL962 KLAX-KBNA
Flight info
| Callsign | DAL962 |
|---|---|
| Flight time | N/A |
| Altitude | 37000 |
| Route | DOTSS2 CLEEE PKE J96 LANCY KEYKE INW KA36Y TUL LOPPY CHSNE3 |
| Aircraft | B738/M-SDE2E3FGHIRWXY/LB1 |
Departure
| Time | 2026-05-03 22:57 |
|---|---|
| Airport | Los Angeles International Airport (KLAX) |
Arrival
| Time | N/A |
|---|---|
| Airport | Nashville International Airport (KBNA) |
| Time | Latitude | Longitude | Altitude | Speed | Heading |
|---|---|---|---|---|---|
| 2026-05-03 22:21 | 33.94700 | -118.40337 | 117 ft | 0 kts | 262° |
| 2026-05-03 22:51 | 33.94700 | -118.40335 | 116 ft | 1 kts | 262° |
| 2026-05-03 22:52 | 33.94702 | -118.40318 | 116 ft | 2 kts | 262° |
| 2026-05-03 22:52 | 33.94704 | -118.40300 | 116 ft | 2 kts | 280° |
| 2026-05-03 22:52 | 33.94697 | -118.40285 | 116 ft | 2 kts | 325° |
| 2026-05-03 22:52 | 33.94689 | -118.40280 | 116 ft | 0 kts | 352° |
| 2026-05-03 22:53 | 33.94682 | -118.40279 | 116 ft | 0 kts | 354° |
| 2026-05-03 22:53 | 33.94681 | -118.40279 | 116 ft | 0 kts | 354° |
| 2026-05-03 22:54 | 33.94682 | -118.40279 | 116 ft | 0 kts | 354° |
| 2026-05-03 22:54 | 33.94702 | -118.40282 | 116 ft | 9 kts | 355° |
| 2026-05-03 22:54 | 33.94807 | -118.40292 | 116 ft | 15 kts | 355° |
| 2026-05-03 22:55 | 33.94895 | -118.40262 | 116 ft | 13 kts | 63° |
| 2026-05-03 22:55 | 33.94911 | -118.40156 | 116 ft | 12 kts | 83° |
| 2026-05-03 22:55 | 33.94921 | -118.40050 | 114 ft | 13 kts | 83° |
| 2026-05-03 22:55 | 33.94935 | -118.39959 | 113 ft | 8 kts | 65° |
| 2026-05-03 22:56 | 33.94952 | -118.39933 | 113 ft | 0 kts | 41° |
| 2026-05-03 22:56 | 33.94999 | -118.39920 | 112 ft | 13 kts | 353° |
| 2026-05-03 22:56 | 33.95038 | -118.39995 | 113 ft | 11 kts | 266° |
| 2026-05-03 22:56 | 33.95016 | -118.40203 | 116 ft | 56 kts | 263° |
| 2026-05-03 22:57 | 33.94938 | -118.40969 | 123 ft | 126 kts | 263° |
| 2026-05-03 22:57 | 33.94801 | -118.42269 | 187 ft | 178 kts | 262° |
| 2026-05-03 22:57 | 33.94625 | -118.43716 | 1068 ft | 173 kts | 263° |
| 2026-05-03 22:57 | 33.94522 | -118.45132 | 1815 ft | 177 kts | 264° |
| 2026-05-03 22:58 | 33.94414 | -118.46639 | 2281 ft | 189 kts | 265° |
| 2026-05-03 22:58 | 33.94344 | -118.48258 | 2773 ft | 200 kts | 267° |
| 2026-05-03 22:58 | 33.94300 | -118.50007 | 3186 ft | 217 kts | 267° |
| 2026-05-03 22:58 | 33.94213 | -118.51893 | 3586 ft | 236 kts | 264° |
| 2026-05-03 22:59 | 33.94056 | -118.53880 | 4181 ft | 245 kts | 263° |
| 2026-05-03 22:59 | 33.93881 | -118.55911 | 4922 ft | 248 kts | 263° |
| 2026-05-03 22:59 | 33.93703 | -118.58006 | 5639 ft | 254 kts | 262° |
| 2026-05-03 22:59 | 33.93324 | -118.60097 | 6207 ft | 264 kts | 248° |
| 2026-05-03 23:00 | 33.92316 | -118.61979 | 6837 ft | 272 kts | 224° |
| 2026-05-03 23:00 | 33.90786 | -118.63254 | 7671 ft | 271 kts | 207° |
| 2026-05-03 23:00 | 33.89027 | -118.64024 | 8458 ft | 273 kts | 192° |
| 2026-05-03 23:00 | 33.87148 | -118.64150 | 9217 ft | 275 kts | 179° |
| 2026-05-03 23:01 | 33.85236 | -118.63937 | 9985 ft | 277 kts | 173° |
| 2026-05-03 23:01 | 33.83379 | -118.63207 | 10527 ft | 291 kts | 155° |
| 2026-05-03 23:01 | 33.81618 | -118.61854 | 10967 ft | 306 kts | 148° |
| 2026-05-03 23:01 | 33.79838 | -118.60360 | 11346 ft | 321 kts | 149° |
| 2026-05-03 23:02 | 33.77948 | -118.58789 | 11726 ft | 335 kts | 149° |
| 2026-05-03 23:02 | 33.75984 | -118.57182 | 12146 ft | 348 kts | 149° |
| 2026-05-03 23:02 | 33.73991 | -118.55561 | 12754 ft | 353 kts | 150° |
| 2026-05-03 23:02 | 33.71954 | -118.53875 | 13362 ft | 360 kts | 147° |
| 2026-05-03 23:03 | 33.70089 | -118.51826 | 13989 ft | 369 kts | 134° |
| 2026-05-03 23:03 | 33.68739 | -118.49187 | 14599 ft | 381 kts | 118° |
| 2026-05-03 23:03 | 33.67771 | -118.46186 | 15098 ft | 391 kts | 114° |
| 2026-05-03 23:03 | 33.66884 | -118.43079 | 15561 ft | 400 kts | 113° |
| 2026-05-03 23:04 | 33.65999 | -118.39893 | 16059 ft | 406 kts | 113° |
| 2026-05-03 23:04 | 33.65174 | -118.36631 | 16514 ft | 416 kts | 108° |
| 2026-05-03 23:04 | 33.64644 | -118.33199 | 16971 ft | 426 kts | 101° |
| 2026-05-03 23:04 | 33.64394 | -118.29589 | 17465 ft | 434 kts | 97° |
| 2026-05-03 23:05 | 33.64307 | -118.25996 | 17902 ft | 441 kts | 94° |
| 2026-05-03 23:05 | 33.64306 | -118.22272 | 18438 ft | 445 kts | 93° |
| 2026-05-03 23:05 | 33.64343 | -118.18547 | 18851 ft | 452 kts | 92° |
| 2026-05-03 23:05 | 33.64383 | -118.14813 | 19369 ft | 456 kts | 92° |
| 2026-05-03 23:06 | 33.64413 | -118.11006 | 19825 ft | 460 kts | 92° |
| 2026-05-03 23:06 | 33.64431 | -118.07149 | 20263 ft | 466 kts | 93° |
| 2026-05-03 23:06 | 33.64440 | -118.03216 | 20750 ft | 469 kts | 93° |
| 2026-05-03 23:06 | 33.64440 | -117.99303 | 21152 ft | 475 kts | 93° |
| 2026-05-03 23:07 | 33.64437 | -117.95364 | 21620 ft | 478 kts | 94° |
| 2026-05-03 23:07 | 33.64431 | -117.91393 | 22053 ft | 482 kts | 93° |
| 2026-05-03 23:07 | 33.64423 | -117.87341 | 22439 ft | 487 kts | 93° |
| 2026-05-03 23:07 | 33.64452 | -117.83262 | 22816 ft | 493 kts | 91° |
| 2026-05-03 23:08 | 33.64675 | -117.79118 | 23210 ft | 499 kts | 86° |
| 2026-05-03 23:08 | 33.65157 | -117.75030 | 23669 ft | 503 kts | 81° |
| 2026-05-03 23:08 | 33.65834 | -117.70880 | 24100 ft | 507 kts | 79° |
| 2026-05-03 23:08 | 33.66620 | -117.66731 | 24444 ft | 512 kts | 77° |
| 2026-05-03 23:09 | 33.67450 | -117.62625 | 24895 ft | 515 kts | 76° |
| 2026-05-03 23:09 | 33.68316 | -117.58437 | 25324 ft | 517 kts | 76° |
| 2026-05-03 23:09 | 33.69173 | -117.54263 | 25688 ft | 521 kts | 77° |
| 2026-05-03 23:09 | 33.70027 | -117.50034 | 26049 ft | 525 kts | 76° |